Time;durP1;ratioP1;P1;durP2;ratioP2;P2;SDS_P1;SDS_P2;PMS_P1;PMS_P2;Temp;Humidity;BMP_temperature;BMP_pressure;BME280_temperature;BME280_humidity;BME280_pressure;Samples;Min_cycle;Max_cycle;Signal;HPM_P1;HPM_P2
2022/01/24 00:00:18;;;;;;;22.05;12.43;;;;;;;6.15;100.00;102613.28;5197920;28;20070;-80
2022/01/24 00:02:48;;;;;;;21.30;12.00;;;;;;;6.13;100.00;102609.78;5204578;28;20060;-81
2022/01/24 00:05:19;;;;;;;22.42;11.88;;;;;;;6.19;100.00;102607.25;5224868;28;20029;-81
2022/01/24 00:07:49;;;;;;;22.15;12.05;;;;;;;6.22;100.00;102607.34;5206777;28;20403;-79
2022/01/24 00:10:23;;;;;;;24.10;12.35;;;;;;;6.21;100.00;102611.63;5207958;28;20059;-81
2022/01/24 00:13:13;;;;;;;23.25;13.07;;;;;;;6.36;100.00;102616.16;5207522;28;20033;-81
2022/01/24 00:26:58;;;;;;;25.45;12.30;;;;;;;6.55;100.00;102610.38;5212475;28;20036;-79
2022/01/24 00:29:28;;;;;;;23.13;11.80;;;;;;;6.41;100.00;102609.34;5199450;28;20029;-81
2022/01/24 00:31:59;;;;;;;20.75;11.95;;;;;;;6.46;100.00;102610.25;5216225;28;20379;-82
2022/01/24 00:34:30;;;;;;;27.00;11.48;;;;;;;6.32;100.00;102611.78;5208593;28;20296;-82
2022/01/24 00:37:00;;;;;;;22.27;12.63;;;;;;;6.28;100.00;102604.81;5208855;28;20636;-79
2022/01/24 00:39:31;;;;;;;21.15;12.20;;;;;;;6.31;100.00;102605.75;5207865;28;20031;-81
2022/01/24 00:43:05;;;;;;;21.02;11.68;;;;;;;6.27;100.00;102608.28;5219065;28;20402;-81
2022/01/24 00:45:11;;;;;;;20.42;12.35;;;;;;;6.26;100.00;102609.13;5191369;28;20098;-81
2022/01/24 00:48:05;;;;;;;24.30;12.43;;;;;;;6.37;100.00;102604.94;5191754;28;20049;-82
2022/01/24 00:56:13;;;;;;;24.55;12.23;;;;;;;6.26;100.00;102607.38;5210047;28;20073;-80
2022/01/24 00:58:43;;;;;;;22.30;12.35;;;;;;;6.26;100.00;102598.72;5190966;28;20048;-80
2022/01/24 01:01:14;;;;;;;24.15;13.07;;;;;;;6.26;100.00;102603.94;5192512;28;20119;-81
2022/01/24 01:03:44;;;;;;;21.73;12.43;;;;;;;6.17;100.00;102604.66;5190355;28;20169;-82
2022/01/24 01:06:15;;;;;;;20.23;11.63;;;;;;;6.14;100.00;102603.75;5213763;28;20025;-81
2022/01/24 01:20:03;;;;;;;25.05;13.40;;;;;;;6.18;100.00;102603.81;5198507;28;20094;-80
2022/01/24 01:22:33;;;;;;;21.20;12.02;;;;;;;6.16;100.00;102599.44;5190198;28;20030;-81
2022/01/24 01:25:04;;;;;;;22.33;13.07;;;;;;;6.11;100.00;102614.09;5193741;28;20068;-82
2022/01/24 01:27:36;;;;;;;24.05;12.52;;;;;;;6.14;100.00;102598.53;5195140;28;20034;-81
2022/01/24 01:30:15;;;;;;;25.92;13.98;;;;;;;6.19;100.00;102609.84;5191472;28;20324;-81
2022/01/24 01:33:06;;;;;;;24.15;12.80;;;;;;;6.17;100.00;102607.25;5215263;28;20021;-80
2022/01/24 01:52:29;;;;;;;27.60;13.52;;;;;;;5.99;100.00;102587.94;5221248;28;20052;-81
2022/01/24 01:55:42;;;;;;;27.23;13.88;;;;;;;6.02;100.00;102591.47;5203668;28;20025;-81
2022/01/24 01:57:52;;;;;;;23.67;13.20;;;;;;;6.24;100.00;102587.47;5207850;28;20120;-82
2022/01/24 02:00:23;;;;;;;24.58;13.15;;;;;;;6.21;100.00;102592.56;5194856;28;20111;-82
2022/01/24 02:02:53;;;;;;;27.10;13.43;;;;;;;6.20;100.00;102594.31;5205457;28;20028;-83
2022/01/24 02:05:24;;;;;;;24.63;13.18;;;;;;;6.11;100.00;102593.31;5225349;28;20511;-81
2022/01/24 02:07:54;;;;;;;24.08;12.73;;;;;;;5.98;100.00;102589.66;5207417;28;20090;-80
2022/01/24 02:10:25;;;;;;;27.40;12.80;;;;;;;6.08;100.00;102595.88;5207622;28;20028;-81
2022/01/24 02:12:56;;;;;;;25.98;13.60;;;;;;;6.21;100.00;102590.88;5207573;28;20116;-82
2022/01/24 02:15:43;;;;;;;27.48;13.73;;;;;;;6.21;100.00;102574.41;5206443;28;20068;-82
2022/01/24 02:26:01;;;;;;;21.75;11.90;;;;;;;6.22;100.00;102583.97;5210602;28;20041;-81
2022/01/24 02:28:46;;;;;;;26.08;12.77;;;;;;;6.24;100.00;102592.66;5211028;28;20507;-81
2022/01/24 02:33:49;;;;;;;22.42;12.40;;;;;;;6.23;100.00;102590.91;5225241;28;20028;-80
2022/01/24 02:36:22;;;;;;;17.83;10.27;;;;;;;6.16;100.00;102579.56;5208223;28;20800;-82
2022/01/24 02:39:07;;;;;;;21.70;11.82;;;;;;;6.14;100.00;102580.38;5207040;28;20521;-80
2022/01/24 02:53:21;;;;;;;23.63;11.98;;;;;;;5.90;100.00;102585.22;5212506;28;20072;-80
2022/01/24 02:55:52;;;;;;;27.08;13.55;;;;;;;5.87;100.00;102582.53;5200875;28;20025;-80
2022/01/24 02:58:22;;;;;;;27.48;13.48;;;;;;;6.05;100.00;102588.03;5199832;28;20021;-81
2022/01/24 03:00:53;;;;;;;25.50;13.13;;;;;;;6.00;100.00;102589.69;5210400;28;20040;-81
2022/01/24 03:03:24;;;;;;;24.73;12.50;;;;;;;5.98;100.00;102594.88;5210098;28;20059;-83
2022/01/24 03:08:26;;;;;;;24.63;12.93;;;;;;;5.98;100.00;102586.19;5183611;28;20050;-82
2022/01/24 03:10:58;;;;;;;26.00;13.45;;;;;;;6.03;100.00;102582.81;5189897;28;20038;-80
2022/01/24 03:16:02;;;;;;;25.27;13.73;;;;;;;6.08;100.00;102577.69;5194829;28;20038;-81
2022/01/24 03:18:32;;;;;;;24.88;12.57;;;;;;;6.05;100.00;102585.44;5192834;28;20479;-82
2022/01/24 03:21:03;;;;;;;26.35;13.43;;;;;;;6.00;100.00;102581.88;5195070;28;20036;-82
2022/01/24 03:23:33;;;;;;;25.00;12.60;;;;;;;6.00;100.00;102582.78;5191680;28;20030;-82
2022/01/24 03:26:03;;;;;;;27.40;12.90;;;;;;;6.01;100.00;102578.44;5188522;28;20144;-82
2022/01/24 03:28:33;;;;;;;28.23;13.35;;;;;;;5.99;100.00;102585.34;5198491;28;20029;-82
2022/01/24 03:31:04;;;;;;;28.85;13.57;;;;;;;6.00;100.00;102577.59;5195868;28;20408;-82
2022/01/24 03:33:34;;;;;;;30.55;13.32;;;;;;;5.96;100.00;102588.78;5196847;28;20386;-82
2022/01/24 03:36:05;;;;;;;25.67;12.73;;;;;;;6.04;100.00;102573.28;5195823;28;20088;-82
2022/01/24 03:38:35;;;;;;;25.15;12.10;;;;;;;6.04;100.00;102587.16;5196266;28;20048;-82
2022/01/24 03:41:05;;;;;;;25.30;12.45;;;;;;;5.91;100.00;102589.56;5194144;28;20055;-82
2022/01/24 03:43:35;;;;;;;23.00;11.48;;;;;;;5.90;100.00;102586.06;5196604;28;20053;-82
2022/01/24 03:48:44;;;;;;;22.27;11.38;;;;;;;5.97;100.00;102581.84;5195799;28;20083;-82
2022/01/24 03:51:15;;;;;;;23.35;11.93;;;;;;;5.82;100.00;102586.81;5197148;28;20036;-82
2022/01/24 03:53:47;;;;;;;21.83;10.93;;;;;;;5.74;100.00;102589.22;5191129;28;20036;-82
2022/01/24 03:56:17;;;;;;;19.55;10.43;;;;;;;5.77;100.00;102588.44;5196503;28;20025;-82
2022/01/24 03:58:48;;;;;;;20.95;10.35;;;;;;;5.82;100.00;102573.81;5195497;28;20109;-82
2022/01/24 04:01:18;;;;;;;24.33;11.93;;;;;;;5.84;100.00;102586.00;5196094;28;20374;-82
2022/01/24 04:03:48;;;;;;;24.55;11.57;;;;;;;5.79;100.00;102578.97;5194020;28;20025;-82
2022/01/24 04:06:20;;;;;;;25.27;11.55;;;;;;;5.80;100.00;102576.41;5196397;28;20029;-82
2022/01/24 04:08:51;;;;;;;23.42;11.35;;;;;;;5.82;100.00;102579.00;5193828;28;20375;-82
2022/01/24 04:11:21;;;;;;;22.50;11.65;;;;;;;5.85;100.00;102586.84;5197883;28;20025;-82
2022/01/24 04:13:58;;;;;;;24.65;12.55;;;;;;;5.87;100.00;102580.84;5193337;28;20160;-82
2022/01/24 04:16:31;;;;;;;34.50;16.45;;;;;;;5.91;100.00;102576.59;5190779;28;20558;-82
2022/01/24 04:19:28;;;;;;;37.13;16.25;;;;;;;5.97;100.00;102574.06;5196223;28;20037;-82
2022/01/24 04:21:54;;;;;;;38.97;18.25;;;;;;;6.05;100.00;102570.72;5196840;28;20025;-82
2022/01/24 04:24:26;;;;;;;33.03;17.70;;;;;;;6.06;100.00;102562.09;5184741;28;20022;-82
2022/01/24 04:26:56;;;;;;;37.78;20.13;;;;;;;5.95;100.00;102565.38;5193895;28;20112;-82
2022/01/24 04:29:26;;;;;;;38.80;20.55;;;;;;;5.91;100.00;102581.78;5195551;28;20125;-82
2022/01/24 04:31:56;;;;;;;33.08;18.02;;;;;;;5.92;100.00;102574.00;5193370;28;20069;-82
2022/01/24 04:34:27;;;;;;;35.70;18.45;;;;;;;5.97;100.00;102576.66;5196744;28;20056;-82
2022/01/24 04:36:57;;;;;;;35.88;19.40;;;;;;;6.02;100.00;102577.59;5192849;28;20025;-82
2022/01/24 04:39:28;;;;;;;37.35;19.10;;;;;;;6.06;100.00;102582.00;5196771;28;20029;-82
2022/01/24 04:42:05;;;;;;;35.53;18.65;;;;;;;5.96;100.00;102581.00;5193535;28;20045;-82
2022/01/24 04:50:25;;;;;;;36.75;18.27;;;;;;;6.02;100.00;102570.69;5179895;28;20045;-82
2022/01/24 04:55:59;;;;;;;29.57;14.87;;;;;;;5.94;100.00;102581.81;5189323;28;20040;-82
2022/01/24 04:58:30;;;;;;;39.20;19.42;;;;;;;5.96;100.00;102574.91;5196671;28;20268;-82
2022/01/24 05:01:00;;;;;;;36.58;18.67;;;;;;;5.89;100.00;102579.13;5193366;28;20026;-82
2022/01/24 05:03:30;;;;;;;35.15;18.70;;;;;;;5.94;100.00;102582.66;5195591;28;20510;-82
2022/01/24 05:06:01;;;;;;;37.85;21.25;;;;;;;6.09;100.00;102574.25;5193664;28;20100;-82
2022/01/24 05:08:31;;;;;;;45.97;24.75;;;;;;;6.08;100.00;102575.97;5193756;28;20112;-82
2022/01/24 05:11:09;;;;;;;37.83;22.48;;;;;;;6.07;100.00;102575.97;5192929;28;20026;-82
2022/01/24 05:24:38;;;;;;;32.20;19.02;;;;;;;6.34;100.00;102573.72;5187764;28;20267;-82
2022/01/24 05:27:08;;;;;;;36.67;19.95;;;;;;;6.19;100.00;102579.59;5192707;28;20594;-82
2022/01/24 05:29:39;;;;;;;35.13;19.27;;;;;;;6.19;100.00;102578.72;5189150;28;20113;-82
2022/01/24 05:32:09;;;;;;;39.08;21.15;;;;;;;6.09;100.00;102587.22;5194326;28;20541;-82
2022/01/24 05:34:39;;;;;;;33.42;19.75;;;;;;;6.24;100.00;102587.47;5193107;28;20030;-82
2022/01/24 05:37:10;;;;;;;32.05;19.08;;;;;;;6.08;100.00;102590.69;5194508;28;20075;-82
2022/01/24 05:39:40;;;;;;;36.72;19.25;;;;;;;6.07;100.00;102588.94;5194768;28;20033;-82
2022/01/24 05:42:10;;;;;;;34.58;18.33;;;;;;;6.07;100.00;102588.94;5194145;28;20044;-82
2022/01/24 05:44:40;;;;;;;34.55;19.67;;;;;;;6.29;100.00;102589.25;5194747;28;20038;-82
2022/01/24 05:47:11;;;;;;;33.67;19.50;;;;;;;6.27;100.00;102588.34;5194133;28;20041;-82
2022/01/24 05:49:41;;;;;;;39.42;19.73;;;;;;;6.25;100.00;102589.19;5193749;28;20121;-82
2022/01/24 05:52:12;;;;;;;33.95;19.25;;;;;;;6.15;100.00;102592.50;5192908;28;20520;-82
2022/01/24 05:54:42;;;;;;;34.90;19.58;;;;;;;6.09;100.00;102592.44;5185717;28;20034;-82
2022/01/24 05:57:13;;;;;;;32.67;18.58;;;;;;;6.09;100.00;102597.63;5191312;28;20030;-82
2022/01/24 05:59:43;;;;;;;33.80;18.20;;;;;;;6.11;100.00;102595.91;5192398;28;20037;-82
2022/01/24 06:02:14;;;;;;;35.72;20.27;;;;;;;6.04;100.00;102599.25;5188221;28;20080;-82
2022/01/24 06:04:45;;;;;;;32.28;18.67;;;;;;;6.00;100.00;102605.25;5192102;28;20033;-82
2022/01/24 06:07:15;;;;;;;41.10;19.98;;;;;;;5.96;100.00;102601.75;5194208;28;20044;-82
2022/01/24 06:09:46;;;;;;;33.35;18.75;;;;;;;5.94;100.00;102593.03;5193099;28;20034;-82
2022/01/24 06:12:16;;;;;;;31.40;17.98;;;;;;;5.91;100.00;102598.19;5194250;28;20041;-82
2022/01/24 06:14:46;;;;;;;35.53;19.95;;;;;;;5.89;100.00;102593.84;5191785;28;20100;-82
2022/01/24 06:17:17;;;;;;;39.78;20.00;;;;;;;5.87;100.00;102592.94;5192638;28;20053;-82
2022/01/24 06:19:47;;;;;;;37.72;19.65;;;;;;;5.96;100.00;102600.88;5193697;28;20100;-82
2022/01/24 06:22:20;;;;;;;38.30;19.98;;;;;;;6.26;100.00;102590.94;5191273;28;20571;-82
2022/01/24 06:24:53;;;;;;;38.63;20.05;;;;;;;6.14;100.00;102588.16;5185798;28;20025;-82
2022/01/24 06:27:23;;;;;;;36.40;19.80;;;;;;;6.19;100.00;102589.09;5194942;28;20029;-81
2022/01/24 06:29:53;;;;;;;37.30;20.23;;;;;;;6.14;100.00;102589.06;5192011;28;20057;-82
2022/01/24 06:32:24;;;;;;;34.85;18.95;;;;;;;6.03;100.00;102587.13;5185503;28;20121;-82
2022/01/24 06:34:54;;;;;;;37.47;19.40;;;;;;;5.99;100.00;102595.72;5195009;28;20025;-82
2022/01/24 06:37:24;;;;;;;35.00;19.38;;;;;;;5.95;100.00;102599.13;5190891;28;20064;-82
2022/01/24 06:39:55;;;;;;;34.38;19.00;;;;;;;5.91;100.00;102592.16;5192658;28;20079;-82
2022/01/24 06:42:26;;;;;;;33.30;18.45;;;;;;;5.97;100.00;102595.72;5190013;28;20037;-82
2022/01/24 06:44:56;;;;;;;33.88;17.85;;;;;;;5.91;100.00;102597.34;5194805;28;20385;-82
2022/01/24 06:47:26;;;;;;;31.95;17.65;;;;;;;5.98;100.00;102604.34;5190758;28;20029;-82
2022/01/24 06:49:57;;;;;;;30.55;16.45;;;;;;;5.94;100.00;102602.56;5194282;28;20021;-82
2022/01/24 06:52:27;;;;;;;32.58;17.83;;;;;;;5.88;100.00;102597.28;5191791;28;20534;-82
2022/01/24 06:54:57;;;;;;;35.42;17.98;;;;;;;5.82;100.00;102592.88;5185508;28;20022;-82
2022/01/24 06:57:28;;;;;;;34.13;17.33;;;;;;;5.79;100.00;102594.53;5194132;28;20410;-82
2022/01/24 06:59:58;;;;;;;32.50;17.73;;;;;;;5.76;100.00;102591.88;5191269;28;20479;-82
2022/01/24 07:02:28;;;;;;;33.55;18.98;;;;;;;5.72;100.00;102590.09;5194120;28;20064;-82
2022/01/24 07:04:59;;;;;;;37.88;19.75;;;;;;;5.71;100.00;102593.53;5188799;28;20030;-82
2022/01/24 07:07:30;;;;;;;37.25;19.95;;;;;;;5.71;100.00;102593.53;5192829;28;20368;-82
2022/01/24 07:10:00;;;;;;;37.75;19.70;;;;;;;5.59;100.00;102588.13;5186065;28;20037;-82
2022/01/24 07:12:31;;;;;;;35.53;18.88;;;;;;;5.56;100.00;102593.25;5192120;28;20026;-82
2022/01/24 07:15:07;;;;;;;36.90;19.15;;;;;;;5.60;100.00;102595.06;5186768;28;20257;-82
2022/01/24 07:20:20;;;;;;;41.47;19.92;;;;;;;5.75;100.00;102595.31;5191063;28;20040;-82
2022/01/24 07:22:50;;;;;;;36.80;19.08;;;;;;;5.90;100.00;102590.41;5184543;28;20029;-82
2022/01/24 07:25:22;;;;;;;36.22;18.10;;;;;;;5.86;100.00;102588.59;5188175;28;20028;-82
2022/01/24 07:27:52;;;;;;;32.65;17.33;;;;;;;5.77;100.00;102594.47;5182959;28;20030;-82
2022/01/24 07:30:22;;;;;;;34.20;17.52;;;;;;;5.72;100.00;102592.69;5190975;28;20026;-82
2022/01/24 07:32:52;;;;;;;33.92;18.00;;;;;;;5.62;100.00;102593.34;5194554;28;20383;-82
2022/01/24 07:35:23;;;;;;;32.90;17.55;;;;;;;5.59;100.00;102591.56;5191254;28;20039;-82
2022/01/24 07:37:53;;;;;;;34.97;17.65;;;;;;;5.63;100.00;102596.00;5193830;28;20025;-82
2022/01/24 07:40:24;;;;;;;34.20;18.30;;;;;;;5.59;100.00;102593.31;5198302;28;20047;-82
2022/01/24 07:42:58;;;;;;;33.38;16.75;;;;;;;5.67;100.00;102602.06;5188226;28;20034;-81
2022/01/24 07:45:28;;;;;;;38.00;18.58;;;;;;;5.65;100.00;102599.47;5197911;28;20029;-79
2022/01/24 07:47:58;;;;;;;38.65;20.05;;;;;;;5.65;100.00;102598.59;5194407;28;20032;-79
2022/01/24 07:50:28;;;;;;;39.42;19.98;;;;;;;5.63;100.00;102600.28;5191105;28;20519;-79
2022/01/24 07:52:59;;;;;;;43.10;20.77;;;;;;;5.68;100.00;102606.41;5194171;28;20384;-79
2022/01/24 07:55:30;;;;;;;46.28;21.38;;;;;;;5.72;100.00;102606.50;5185281;28;20033;-79
2022/01/24 07:58:00;;;;;;;46.25;22.05;;;;;;;5.69;100.00;102610.75;5190107;28;20028;-80
2022/01/24 08:00:31;;;;;;;46.90;21.42;;;;;;;5.67;100.00;102602.06;5188428;28;20160;-79
2022/01/24 08:03:01;;;;;;;45.83;22.42;;;;;;;5.60;100.00;102592.47;5195529;28;20185;-80
2022/01/24 08:05:33;;;;;;;43.90;22.17;;;;;;;5.66;100.00;102595.16;5194327;28;20034;-79
2022/01/24 08:08:04;;;;;;;43.20;20.60;;;;;;;5.64;100.00;102594.25;5195887;28;20535;-82
2022/01/24 08:10:35;;;;;;;38.22;18.55;;;;;;;5.66;100.00;102598.63;5194587;28;20117;-82
2022/01/24 08:13:05;;;;;;;45.47;20.40;;;;;;;5.70;100.00;102596.94;5196039;28;20314;-82
2022/01/24 08:15:36;;;;;;;47.60;22.20;;;;;;;5.65;100.00;102601.19;5191877;28;20069;-82
2022/01/24 08:18:06;;;;;;;48.35;21.33;;;;;;;5.65;100.00;102607.25;5195332;28;20529;-82
2022/01/24 08:20:37;;;;;;;45.53;21.13;;;;;;;5.68;100.00;102603.81;5194679;28;20437;-82
2022/01/24 08:23:08;;;;;;;54.03;24.85;;;;;;;5.66;100.00;102605.53;5195307;28;20040;-82
2022/01/24 08:25:39;;;;;;;58.03;26.60;;;;;;;5.72;100.00;102590.09;5187852;28;20052;-82
2022/01/24 08:28:09;;;;;;;53.00;23.90;;;;;;;5.79;100.00;102592.84;5184690;28;20022;-82
2022/01/24 08:30:40;;;;;;;51.92;25.08;;;;;;;5.78;100.00;102592.75;5194615;28;20084;-82
2022/01/24 08:33:10;;;;;;;60.95;27.48;;;;;;;5.75;100.00;102593.56;5194487;28;20064;-82
2022/01/24 08:35:40;;;;;;;48.38;23.02;;;;;;;5.82;100.00;102592.88;5195239;28;20036;-82
2022/01/24 08:38:11;;;;;;;55.67;24.65;;;;;;;5.89;100.00;102594.72;5194408;28;20108;-82
2022/01/24 08:40:42;;;;;;;57.30;25.55;;;;;;;5.75;100.00;102592.72;5195524;28;20033;-82
2022/01/24 08:43:12;;;;;;;54.55;24.30;;;;;;;5.74;100.00;102597.00;5194147;28;20029;-82
2022/01/24 08:48:20;;;;;;;51.45;24.45;;;;;;;5.88;100.00;102592.09;5192810;28;20541;-82
2022/01/24 08:50:53;;;;;;;51.00;24.10;;;;;;;5.88;100.00;102594.69;5193100;28;20034;-82
2022/01/24 08:53:23;;;;;;;50.28;24.33;;;;;;;5.78;100.00;102596.25;5194374;28;20029;-82
2022/01/24 08:55:54;;;;;;;51.50;25.15;;;;;;;5.66;100.00;102596.03;5186364;28;20046;-82
2022/01/24 08:58:26;;;;;;;51.60;25.17;;;;;;;5.64;100.00;102594.25;5198322;28;20029;-82
2022/01/24 09:00:57;;;;;;;48.42;23.98;;;;;;;5.72;100.00;102601.31;5192756;28;20304;-82
2022/01/24 09:03:29;;;;;;;53.67;24.65;;;;;;;5.86;100.00;102593.78;5196383;28;20409;-82
2022/01/24 09:06:00;;;;;;;64.90;25.88;;;;;;;5.90;100.00;102590.41;5193308;28;20037;-82
2022/01/24 09:08:30;;;;;;;54.95;24.40;;;;;;;5.90;100.00;102591.25;5229929;22;20045;-79
2022/01/24 09:11:02;;;;;;;57.90;25.30;;;;;;;5.89;100.00;102588.66;5221130;28;20036;-79
2022/01/24 09:13:32;;;;;;;50.83;24.73;;;;;;;5.94;100.00;102587.00;5223934;28;20390;-79
2022/01/24 09:16:04;;;;;;;54.38;24.73;;;;;;;5.84;100.00;102592.88;5217413;28;20021;-78
2022/01/24 09:18:34;;;;;;;45.83;23.60;;;;;;;5.99;100.00;102598.31;5201793;28;20039;-78
2022/01/24 09:21:04;;;;;;;60.42;28.25;;;;;;;5.93;100.00;102599.09;5223171;28;20017;-79
2022/01/24 09:23:35;;;;;;;57.40;25.58;;;;;;;5.90;100.00;102586.06;5220307;28;20025;-79
2022/01/24 09:26:05;;;;;;;54.13;25.90;;;;;;;6.00;100.00;102592.28;5210324;28;20030;-78
2022/01/24 09:28:36;;;;;;;58.90;25.67;;;;;;;5.95;100.00;102593.94;5205878;28;20026;-79
2022/01/24 09:31:06;;;;;;;52.17;24.63;;;;;;;6.01;100.00;102589.72;5221839;28;20057;-79
2022/01/24 09:33:37;;;;;;;49.22;23.67;;;;;;;6.09;100.00;102592.44;5224208;28;20032;-79
2022/01/24 09:36:07;;;;;;;55.03;24.95;;;;;;;6.06;100.00;102588.06;5224028;28;20025;-78
2022/01/24 09:38:37;;;;;;;52.72;23.48;;;;;;;6.08;100.00;102586.34;5224125;28;20650;-79
2022/01/24 09:41:10;;;;;;;53.88;23.83;;;;;;;6.14;100.00;102593.34;5224247;28;20036;-78
2022/01/24 09:43:43;;;;;;;52.95;24.02;;;;;;;6.11;100.00;102595.91;5225021;28;20033;-79
2022/01/24 09:46:14;;;;;;;52.97;24.77;;;;;;;6.10;100.00;102605.41;5224613;28;20029;-79
2022/01/24 09:48:44;;;;;;;51.65;24.23;;;;;;;6.12;100.00;102600.25;5207662;28;20028;-78
2022/01/24 09:51:15;;;;;;;53.95;24.65;;;;;;;6.16;100.00;102600.31;5224280;28;20035;-78
2022/01/24 09:53:45;;;;;;;52.17;24.13;;;;;;;6.13;100.00;102589.91;5219120;28;20020;-78
2022/01/24 09:56:17;;;;;;;51.38;24.27;;;;;;;6.17;100.00;102598.59;5208457;28;20025;-78
2022/01/24 09:58:47;;;;;;;55.88;24.33;;;;;;;6.29;100.00;102596.16;5212082;28;20474;-78
2022/01/24 10:01:18;;;;;;;53.22;24.23;;;;;;;6.37;100.00;102597.13;5222982;28;20119;-79
2022/01/24 10:04:09;;;;;;;55.42;25.17;;;;;;;6.33;100.00;102600.56;5223978;28;20025;-79
2022/01/24 10:07:01;;;;;;;52.97;25.17;;;;;;;6.31;100.00;102604.84;5220263;28;20043;-79
2022/01/24 10:09:48;;;;;;;52.42;23.90;;;;;;;6.33;100.00;102601.44;5213569;28;20070;-78
2022/01/24 10:12:35;;;;;;;52.60;24.98;;;;;;;6.34;100.00;102595.38;5224411;28;20510;-78
2022/01/24 10:18:18;;;;;;;50.58;24.02;;;;;;;6.39;100.00;102592.88;5216304;28;20036;-78
2022/01/24 10:20:48;;;;;;;52.13;24.52;;;;;;;6.41;100.00;102585.97;5219646;28;20027;-78
2022/01/24 10:23:26;;;;;;;48.80;23.80;;;;;;;6.43;100.00;102594.66;5221444;28;20092;-79
2022/01/24 10:26:04;;;;;;;54.08;23.98;;;;;;;6.38;100.00;102591.09;5208752;28;20502;-78
2022/01/24 10:28:44;;;;;;;49.85;23.13;;;;;;;6.40;100.00;102590.28;5212259;28;20095;-78
2022/01/24 10:31:22;;;;;;;46.47;23.17;;;;;;;6.39;100.00;102596.31;5223320;28;20031;-78
2022/01/24 10:34:18;;;;;;;53.42;23.77;;;;;;;6.36;100.00;102598.00;5214841;28;20057;-78
2022/01/24 10:36:57;;;;;;;47.72;22.15;;;;;;;6.37;100.00;102600.63;5202445;28;20040;-78
2022/01/24 10:45:20;;;;;;;45.25;20.80;;;;;;;6.50;100.00;102583.47;5210340;28;20053;-78
2022/01/24 10:47:53;;;;;;;48.25;22.05;;;;;;;6.46;100.00;102581.69;5205644;28;20025;-78
2022/01/24 10:50:28;;;;;;;43.72;20.35;;;;;;;6.40;100.00;102585.06;5222532;28;20528;-78
2022/01/24 10:53:13;;;;;;;45.08;20.08;;;;;;;6.35;100.00;102588.47;5216296;28;20024;-78
2022/01/24 10:55:45;;;;;;;44.47;20.30;;;;;;;6.36;100.00;102590.19;5210816;28;20619;-79
2022/01/24 10:58:18;;;;;;;44.92;20.85;;;;;;;6.48;100.00;102580.00;5208824;28;20111;-79
2022/01/24 11:00:49;;;;;;;41.78;20.58;;;;;;;6.45;100.00;102582.53;5219873;28;20021;-79
2022/01/24 11:03:20;;;;;;;44.28;20.38;;;;;;;6.39;100.00;102585.06;5223191;28;20036;-78
2022/01/24 11:05:50;;;;;;;46.20;21.52;;;;;;;6.34;100.00;102579.81;5222599;28;20033;-79
2022/01/24 11:08:21;;;;;;;44.40;20.63;;;;;;;6.36;100.00;102569.44;5223163;28;20047;-79
2022/01/24 11:10:52;;;;;;;47.38;21.10;;;;;;;6.35;100.00;102576.38;5223812;28;20029;-78
2022/01/24 11:13:25;;;;;;;39.40;18.52;;;;;;;6.35;100.00;102576.38;5227496;28;20028;-79
2022/01/24 11:15:58;;;;;;;42.55;20.08;;;;;;;6.43;100.00;102566.06;5214853;28;20347;-79
2022/01/24 11:18:29;;;;;;;37.70;18.35;;;;;;;6.39;100.00;102578.13;5218149;28;20741;-79
2022/01/24 11:21:05;;;;;;;38.30;18.13;;;;;;;6.41;100.00;102583.38;5225193;28;20025;-79
2022/01/24 11:23:40;;;;;;;32.88;16.48;;;;;;;6.41;100.00;102570.38;5213655;28;20169;-79
2022/01/24 11:26:11;;;;;;;36.22;16.58;;;;;;;6.46;100.00;102553.13;5212648;28;20028;-78
2022/01/24 11:28:44;;;;;;;29.67;15.23;;;;;;;6.48;100.00;102554.00;5213705;28;20085;-79
2022/01/24 11:31:23;;;;;;;35.88;16.75;;;;;;;6.44;100.00;102554.84;5208448;28;20028;-79
2022/01/24 11:34:11;;;;;;;31.33;15.05;;;;;;;6.54;100.00;102551.47;5197153;28;20028;-79
2022/01/24 11:36:43;;;;;;;31.92;15.55;;;;;;;6.52;100.00;102540.22;5208070;28;20034;-78
2022/01/24 11:39:21;;;;;;;30.60;15.07;;;;;;;6.52;100.00;102541.09;5216405;28;20017;-79
2022/01/24 11:41:52;;;;;;;29.88;14.55;;;;;;;6.52;100.00;102537.59;5226008;28;20059;-79
2022/01/24 11:44:23;;;;;;;26.85;13.23;;;;;;;6.58;100.00;102537.69;5227010;28;20024;-79
2022/01/24 11:46:56;;;;;;;31.45;14.68;;;;;;;6.70;100.00;102535.22;5226826;28;20104;-78
2022/01/24 11:49:36;;;;;;;30.60;15.40;;;;;;;6.62;100.00;102537.72;5216161;28;20120;-78
2022/01/24 11:52:13;;;;;;;31.02;14.57;;;;;;;6.72;100.00;102539.59;5226738;28;20087;-78
2022/01/24 11:57:37;;;;;;;27.30;13.50;;;;;;;6.61;100.00;102537.72;5216149;28;20051;-79
2022/01/24 12:00:07;;;;;;;29.15;13.63;;;;;;;6.56;100.00;102544.59;5206865;28;20823;-80
2022/01/24 12:02:39;;;;;;;25.27;13.23;;;;;;;6.61;100.00;102540.34;5216115;28;20033;-79
2022/01/24 12:05:17;;;;;;;29.45;13.40;;;;;;;6.60;100.00;102541.19;5213325;28;20022;-79
2022/01/24 12:07:53;;;;;;;24.85;12.55;;;;;;;6.63;100.00;102536.03;5209976;28;20052;-79
2022/01/24 12:10:24;;;;;;;27.75;15.35;;;;;;;6.50;100.00;102532.41;5210455;28;20032;-79
2022/01/24 12:13:27;;;;;;;26.73;13.90;;;;;;;6.39;100.00;102531.41;5209196;28;20053;-79
2022/01/24 12:16:00;;;;;;;23.25;11.82;;;;;;;6.43;100.00;102529.72;5210359;28;20036;-79
2022/01/24 12:18:30;;;;;;;26.55;12.32;;;;;;;6.49;100.00;102525.47;5208435;28;20036;-79
2022/01/24 12:21:08;;;;;;;23.47;11.80;;;;;;;6.60;100.00;102530.78;5219515;28;20088;-79
2022/01/24 12:23:50;;;;;;;20.42;11.43;;;;;;;6.59;100.00;102521.25;5221865;28;20284;-80
2022/01/24 12:26:24;;;;;;;20.35;10.63;;;;;;;6.60;100.00;102521.25;5215051;28;20057;-80
2022/01/24 12:29:03;;;;;;;21.27;10.77;;;;;;;6.48;100.00;102522.84;5216615;28;20032;-79
2022/01/24 12:31:33;;;;;;;20.77;10.48;;;;;;;6.45;100.00;102525.41;5217623;28;20051;-80
2022/01/24 12:34:13;;;;;;;18.55;9.75;;;;;;;6.50;100.00;102521.13;5226304;28;20025;-79
2022/01/24 12:36:50;;;;;;;16.85;9.55;;;;;;;6.54;100.00;102530.69;5226388;28;20029;-79
2022/01/24 12:39:25;;;;;;;19.00;10.18;;;;;;;6.52;100.00;102522.91;5226201;28;20021;-79
2022/01/24 12:41:59;;;;;;;20.08;11.05;;;;;;;6.46;100.00;102514.16;5200679;28;20060;-80
2022/01/24 12:47:15;;;;;;;19.65;10.48;;;;;;;6.55;100.00;102519.47;5226661;28;20036;-78
2022/01/24 12:49:47;;;;;;;17.90;10.32;;;;;;;6.56;100.00;102519.50;5224499;28;20033;-78
2022/01/24 12:52:25;;;;;;;18.75;9.60;;;;;;;6.49;100.00;102520.28;5203797;28;20044;-79
2022/01/24 12:54:59;;;;;;;19.35;9.95;;;;;;;6.54;100.00;102518.59;5205909;28;20534;-79
2022/01/24 12:57:30;;;;;;;17.75;9.60;;;;;;;6.63;100.00;102512.63;5212740;28;20079;-78
2022/01/24 13:00:13;;;;;;;18.83;9.90;;;;;;;6.61;100.00;102507.41;5212726;28;20024;-78
2022/01/24 13:02:43;;;;;;;20.17;9.82;;;;;;;6.47;100.00;102513.31;5209176;28;20100;-79
2022/01/24 13:05:16;;;;;;;18.80;10.27;;;;;;;6.43;100.00;102514.13;5215194;28;20140;-78
2022/01/24 13:07:52;;;;;;;15.95;8.65;;;;;;;6.55;100.00;102507.34;5216343;28;20499;-78
2022/01/24 13:10:23;;;;;;;;;;;;;;;6.55;100.00;102501.28;5207451;28;20750;-78
2022/01/24 13:13:05;;;;;;;16.30;8.52;;;;;;;6.59;100.00;102493.53;5215525;28;19939;-79
2022/01/24 13:21:26;;;;;;;16.15;8.88;;;;;;;6.44;100.00;102495.09;5224966;28;20048;-78
2022/01/24 13:24:00;;;;;;;16.63;8.77;;;;;;;6.45;100.00;102500.28;5218893;28;20112;-79
2022/01/24 13:26:30;;;;;;;16.40;8.32;;;;;;;6.37;100.00;102501.94;5217673;28;20502;-79
2022/01/24 13:29:05;;;;;;;15.15;7.45;;;;;;;6.38;100.00;102492.41;5218356;28;20036;-79
2022/01/24 13:31:35;;;;;;;13.20;6.97;;;;;;;6.41;100.00;102489.88;5224901;28;20040;-78
2022/01/24 13:34:09;;;;;;;12.07;7.05;;;;;;;6.47;100.00;102492.53;5225373;28;20475;-79